Terminal Aerodrome Forecast
Issued by NWS

Home | Current Version | Previous Version | Text Only | Print | Product List | Glossary On
Versions: 1 2 3 4 5 6 7 8 9 10 11 12 13 14 15 16 17 18 19 20 21 22 23 24 25
000
FTUS43 KMQT 202334
TAFSAW
TAF
KSAW 202334Z 2100/2124 28011G17KT 5SM -SHSN OVC015
     FM210100 25010KT P6SM VCSH BKN025 OVC035
     FM210900 22008KT P6SM -SHSN OVC012
     FM211500 28012G20KT P6SM -SHSN OVC025=

USA.gov is the U.S. government's official web portal to all federal, state and local government web resources and services.